Time;durP1;ratioP1;P1;durP2;ratioP2;P2;SDS_P1;SDS_P2;PMS_P1;PMS_P2;Temp;Humidity;BMP_temperature;BMP_pressure;BME280_temperature;BME280_humidity;BME280_pressure;Samples;Min_cycle;Max_cycle;Signal;HPM_P1;HPM_P2
2022/09/20 00:01:10;;;;;;;0.85;0.50;;;7.90;99.90;;;;;;5035880;28;20066;-72
2022/09/20 00:03:41;;;;;;;1.50;0.60;;;7.90;99.90;;;;;;5036125;28;20109;-72
2022/09/20 00:06:09;;;;;;;1.95;0.45;;;7.90;99.90;;;;;;5036203;28;20029;-72
2022/09/20 00:08:36;;;;;;;2.28;0.50;;;7.90;99.90;;;;;;5035893;28;20030;-72
2022/09/20 00:11:11;;;;;;;2.17;0.70;;;7.90;99.90;;;;;;5036155;28;20434;-72
2022/09/20 00:13:38;;;;;;;3.40;0.90;;;7.90;99.90;;;;;;5035602;28;20051;-72
2022/09/20 00:16:05;;;;;;;2.50;0.70;;;7.80;99.90;;;;;;5035679;28;20025;-72
2022/09/20 00:18:31;;;;;;;1.30;0.65;;;7.80;99.90;;;;;;5035514;28;20075;-72
2022/09/20 00:20:57;;;;;;;2.05;0.60;;;7.80;99.90;;;;;;5035490;28;20030;-71
2022/09/20 00:23:23;;;;;;;2.75;0.82;;;7.80;99.90;;;;;;5035506;28;20474;-71
2022/09/20 00:25:56;;;;;;;1.77;0.55;;;7.70;99.90;;;;;;5035502;28;20044;-71
2022/09/20 00:28:22;;;;;;;0.98;0.57;;;7.70;99.90;;;;;;5035198;28;20540;-72
2022/09/20 00:30:48;;;;;;;1.27;0.70;;;7.60;99.90;;;;;;5034353;28;20057;-72
2022/09/20 00:33:14;;;;;;;2.58;0.80;;;7.60;99.90;;;;;;5035258;28;20039;-72
2022/09/20 00:35:43;;;;;;;2.30;0.70;;;7.60;99.90;;;;;;5035401;28;20072;-72
2022/09/20 00:38:09;;;;;;;2.15;0.55;;;7.60;99.90;;;;;;5035249;28;20056;-72
2022/09/20 00:40:35;;;;;;;1.52;0.40;;;7.60;99.90;;;;;;5035207;28;20044;-72
2022/09/20 00:43:01;;;;;;;2.33;0.60;;;7.60;99.90;;;;;;5034932;28;20112;-72
2022/09/20 00:45:29;;;;;;;1.90;0.68;;;7.60;99.90;;;;;;5035304;28;20076;-72
2022/09/20 00:47:59;;;;;;;1.08;0.50;;;7.60;99.90;;;;;;5035348;28;20033;-72
2022/09/20 00:50:35;;;;;;;0.80;0.40;;;7.70;99.90;;;;;;5035036;28;20382;-72
2022/09/20 00:53:17;;;;;;;0.93;0.50;;;7.70;99.90;;;;;;5035481;28;20033;-72
2022/09/20 00:55:47;;;;;;;1.77;0.50;;;7.70;99.90;;;;;;5035089;28;20025;-72
2022/09/20 00:58:14;;;;;;;2.53;0.50;;;7.80;99.90;;;;;;5034742;28;20433;-72
2022/09/20 01:00:42;;;;;;;1.17;0.50;;;7.80;99.90;;;;;;5034791;28;20022;-72
2022/09/20 01:03:10;;;;;;;1.35;0.52;;;7.80;99.90;;;;;;5035096;28;20381;-72
2022/09/20 01:05:37;;;;;;;1.10;0.40;;;7.80;99.90;;;;;;5034730;28;20029;-72
2022/09/20 01:08:03;;;;;;;1.98;0.50;;;7.80;99.90;;;;;;5034668;28;20109;-72
2022/09/20 01:10:31;;;;;;;0.75;0.40;;;7.80;99.90;;;;;;5034667;28;20064;-72
2022/09/20 01:12:57;;;;;;;0.80;0.30;;;7.80;99.90;;;;;;5034328;28;20482;-72
2022/09/20 01:15:26;;;;;;;1.27;0.60;;;7.80;99.90;;;;;;5033650;28;20038;-72
2022/09/20 01:17:55;;;;;;;1.42;0.50;;;7.80;99.90;;;;;;5034977;28;20017;-72
2022/09/20 01:20:25;;;;;;;2.22;0.50;;;7.80;99.90;;;;;;5034306;28;20029;-72
2022/09/20 01:23:02;;;;;;;1.05;0.60;;;7.80;99.90;;;;;;5034351;28;20510;-72
2022/09/20 01:25:48;;;;;;;1.02;0.40;;;7.80;99.90;;;;;;5034311;28;20486;-72
2022/09/20 01:28:15;;;;;;;1.27;0.60;;;7.80;99.90;;;;;;5034092;28;20030;-72
2022/09/20 01:31:03;;;;;;;1.20;0.65;;;7.80;99.90;;;;;;5034472;28;20026;-72
2022/09/20 01:33:43;;;;;;;1.95;0.70;;;7.80;99.90;;;;;;5032762;28;20397;-72
2022/09/20 01:36:13;;;;;;;1.23;0.60;;;7.80;99.90;;;;;;5033431;28;20029;-72
2022/09/20 01:38:49;;;;;;;1.35;0.50;;;7.80;99.90;;;;;;5034398;28;20104;-72
2022/09/20 01:41:25;;;;;;;0.65;0.30;;;7.70;99.90;;;;;;5033983;28;20035;-72
2022/09/20 01:44:02;;;;;;;0.75;0.50;;;7.70;99.90;;;;;;5034022;28;20033;-72
2022/09/20 01:46:34;;;;;;;1.17;0.50;;;7.60;99.90;;;;;;5034053;28;20030;-72
2022/09/20 01:49:05;;;;;;;1.08;0.38;;;7.60;99.90;;;;;;5034240;28;20033;-72
2022/09/20 01:52:01;;;;;;;1.48;0.40;;;7.60;99.90;;;;;;5033737;28;20036;-72
2022/09/20 01:54:45;;;;;;;1.92;0.40;;;7.60;99.90;;;;;;5034020;28;20029;-72
2022/09/20 01:57:25;;;;;;;0.75;0.40;;;7.50;99.90;;;;;;5033504;28;20408;-72
2022/09/20 02:00:11;;;;;;;1.00;0.40;;;7.50;99.90;;;;;;5032452;28;20025;-72
2022/09/20 02:02:40;;;;;;;1.20;0.40;;;7.40;99.90;;;;;;5033585;28;20056;-72
2022/09/20 02:05:16;;;;;;;1.55;0.40;;;7.40;99.90;;;;;;5033652;28;20536;-72
2022/09/20 02:08:18;;;;;;;4.72;1.85;;;7.40;99.90;;;;;;5033606;28;20025;-72
2022/09/20 02:10:50;;;;;;;5.20;2.42;;;7.40;99.90;;;;;;5033793;28;20087;-72
2022/09/20 02:13:19;;;;;;;5.60;2.30;;;7.30;99.90;;;;;;5033380;28;20017;-72
2022/09/20 02:16:12;;;;;;;4.45;2.17;;;7.30;99.90;;;;;;5033463;28;20025;-72
2022/09/20 02:19:10;;;;;;;4.28;2.00;;;7.30;99.90;;;;;;5032089;28;20485;-72
2022/09/20 02:21:50;;;;;;;3.65;1.63;;;7.30;99.90;;;;;;5033435;28;20117;-72
2022/09/20 02:24:28;;;;;;;2.75;1.10;;;7.20;99.90;;;;;;5033412;28;20021;-72
2022/09/20 02:27:25;;;;;;;1.48;0.70;;;7.20;99.90;;;;;;5033400;28;20025;-72
2022/09/20 02:30:32;;;;;;;1.65;0.95;;;7.30;99.90;;;;;;5033579;28;20030;-72
2022/09/20 02:33:03;;;;;;;1.83;0.70;;;7.30;99.90;;;;;;5033736;28;20359;-72
2022/09/20 02:36:03;;;;;;;2.38;0.70;;;7.30;99.90;;;;;;5033242;28;20060;-72
2022/09/20 02:38:48;;;;;;;2.08;0.80;;;7.40;99.90;;;;;;5033303;28;20029;-72
2022/09/20 02:41:38;;;;;;;6.68;3.88;;;7.40;99.90;;;;;;5033440;28;20017;-73
2022/09/20 02:44:08;;;;;;;6.85;4.20;;;7.30;99.90;;;;;;5032957;28;20018;-72
2022/09/20 02:46:45;;;;;;;5.40;3.30;;;7.30;99.90;;;;;;5033186;28;20021;-73
2022/09/20 02:49:39;;;;;;;4.10;2.40;;;7.20;99.90;;;;;;5033126;28;20486;-73
2022/09/20 02:52:22;;;;;;;2.42;1.65;;;7.30;99.90;;;;;;5033020;28;20095;-73
2022/09/20 02:54:57;;;;;;;1.90;1.30;;;7.30;99.90;;;;;;5037143;28;20040;-73
2022/09/20 02:57:41;;;;;;;3.05;1.50;;;7.30;99.90;;;;;;5036895;28;20022;-72
2022/09/20 03:00:21;;;;;;;2.40;1.50;;;7.40;99.90;;;;;;5037145;28;20076;-73
2022/09/20 03:02:50;;;;;;;2.42;1.50;;;7.40;99.90;;;;;;5037308;28;20040;-73
2022/09/20 03:05:36;;;;;;;2.30;1.25;;;7.40;99.90;;;;;;5037019;28;20021;-73
2022/09/20 03:08:46;;;;;;;2.22;1.10;;;7.40;99.90;;;;;;5036894;28;20059;-73
2022/09/20 03:11:39;;;;;;;1.65;0.82;;;7.40;99.90;;;;;;4956677;28;20032;-73
2022/09/20 03:14:07;;;;;;;1.33;0.80;;;7.40;99.90;;;;;;5034936;28;20033;-72
2022/09/20 03:16:54;;;;;;;1.80;0.90;;;7.50;99.90;;;;;;5036747;28;20092;-73
2022/09/20 03:19:44;;;;;;;6.25;1.40;;;7.40;99.90;;;;;;5036760;28;20037;-73
2022/09/20 03:22:46;;;;;;;3.80;1.15;;;7.50;99.90;;;;;;5036873;28;20040;-73
2022/09/20 03:25:20;;;;;;;1.65;0.82;;;7.40;99.90;;;;;;4956431;29;20472;-73
2022/09/20 03:27:56;;;;;;;1.13;0.70;;;7.40;99.90;;;;;;5024271;28;20511;-73
2022/09/20 03:30:42;;;;;;;1.38;0.70;;;7.40;99.90;;;;;;5035461;28;20079;-73
2022/09/20 03:33:36;;;;;;;0.90;0.60;;;7.40;99.90;;;;;;5036559;28;20160;-73
2022/09/20 03:36:39;;;;;;;1.38;0.68;;;7.40;99.90;;;;;;5027478;28;20489;-72
2022/09/20 03:39:13;;;;;;;1.42;0.80;;;7.40;99.90;;;;;;5036558;28;20516;-73
2022/09/20 03:42:15;;;;;;;2.35;1.08;;;7.40;99.90;;;;;;5031201;28;20366;-73
2022/09/20 03:44:49;;;;;;;2.67;1.23;;;7.40;99.90;;;;;;5036330;28;20021;-73
2022/09/20 03:47:37;;;;;;;4.38;2.45;;;7.40;99.90;;;;;;5035367;28;20430;-73
2022/09/20 03:50:22;;;;;;;5.15;2.55;;;7.30;99.90;;;;;;5036386;28;20022;-73
2022/09/20 03:53:03;;;;;;;4.25;2.28;;;7.30;99.90;;;;;;5036026;28;20025;-72
2022/09/20 03:55:38;;;;;;;2.58;1.30;;;7.30;99.90;;;;;;5036456;28;20028;-73
2022/09/20 03:58:41;;;;;;;3.03;1.20;;;7.30;99.90;;;;;;5035975;28;20024;-72
2022/09/20 04:01:27;;;;;;;2.22;1.27;;;7.20;99.90;;;;;;5036220;28;20101;-73
2022/09/20 04:04:15;;;;;;;5.50;1.60;;;7.20;99.90;;;;;;5036090;28;20021;-73
2022/09/20 04:06:56;;;;;;;2.10;1.40;;;7.20;99.90;;;;;;5035863;28;20388;-73
2022/09/20 04:09:44;;;;;;;5.83;1.40;;;7.20;99.90;;;;;;5035975;28;20095;-73
2022/09/20 04:12:31;;;;;;;2.60;1.30;;;7.20;99.90;;;;;;5036294;28;20388;-73
2022/09/20 04:15:27;;;;;;;4.90;2.42;;;7.20;99.90;;;;;;5035944;28;20025;-73
2022/09/20 04:18:26;;;;;;;23.77;12.90;;;7.10;99.90;;;;;;5035570;28;20021;-74
2022/09/20 04:21:11;;;;;;;25.27;14.60;;;7.10;99.90;;;;;;5035966;28;20029;-73
2022/09/20 04:23:48;;;;;;;11.88;6.80;;;7.10;99.90;;;;;;5035769;28;20036;-73
2022/09/20 04:26:21;;;;;;;5.28;3.25;;;7.10;99.90;;;;;;5035542;28;20393;-74
2022/09/20 04:28:54;;;;;;;4.63;2.20;;;7.10;99.90;;;;;;5035339;28;20024;-73
2022/09/20 04:31:40;;;;;;;4.60;2.15;;;7.10;99.90;;;;;;5035689;28;20481;-73
2022/09/20 04:34:15;;;;;;;28.70;9.80;;;7.20;99.90;;;;;;5035252;28;20032;-73
2022/09/20 04:36:57;;;;;;;44.80;18.20;;;7.10;99.90;;;;;;5035329;28;20426;-73
2022/09/20 04:39:46;;;;;;;52.20;20.20;;;7.10;99.90;;;;;;5035150;28;20033;-72
2022/09/20 04:42:30;;;;;;;34.20;14.45;;;7.10;99.90;;;;;;5034668;28;20033;-72
2022/09/20 04:45:11;;;;;;;14.10;8.32;;;7.10;99.90;;;;;;5035164;28;20033;-73
2022/09/20 04:48:05;;;;;;;6.43;4.50;;;7.00;99.90;;;;;;5034570;28;20481;-73
2022/09/20 04:50:40;;;;;;;4.53;2.55;;;6.90;99.90;;;;;;5033989;28;20476;-73
2022/09/20 04:53:24;;;;;;;3.45;1.75;;;6.90;99.90;;;;;;5035095;28;20021;-72
2022/09/20 04:55:51;;;;;;;4.40;1.70;;;6.80;99.90;;;;;;5034971;28;20022;-73
2022/09/20 04:58:26;;;;;;;3.70;1.55;;;6.90;99.90;;;;;;5033764;28;20116;-72
2022/09/20 05:01:18;;;;;;;4.85;1.60;;;6.90;99.90;;;;;;5033433;28;20111;-72
2022/09/20 05:04:11;;;;;;;3.25;1.73;;;6.90;99.90;;;;;;5035075;28;20028;-73
2022/09/20 05:07:10;;;;;;;2.38;1.45;;;6.90;99.90;;;;;;5034714;28;20029;-73
2022/09/20 05:09:48;;;;;;;1.80;1.02;;;6.90;99.90;;;;;;5034675;28;20025;-73
2022/09/20 05:12:33;;;;;;;12.57;4.95;;;6.80;99.90;;;;;;5034563;28;20040;-73
2022/09/20 05:15:08;;;;;;;80.47;33.10;;;6.90;99.90;;;;;;5034071;28;20045;-73
2022/09/20 05:17:40;;;;;;;26.73;12.55;;;6.90;99.90;;;;;;5034513;28;20026;-73
2022/09/20 05:20:24;;;;;;;14.07;5.90;;;6.80;99.90;;;;;;5033080;28;20026;-73
2022/09/20 05:22:55;;;;;;;5.18;2.60;;;6.80;99.90;;;;;;5034344;28;20017;-73
2022/09/20 05:25:21;;;;;;;6.28;2.58;;;6.70;99.90;;;;;;5034373;28;20032;-73
2022/09/20 05:28:05;;;;;;;3.78;1.90;;;6.70;99.90;;;;;;5034087;28;20104;-72
2022/09/20 05:30:50;;;;;;;2.15;1.30;;;6.70;99.90;;;;;;5034600;28;20400;-73
2022/09/20 05:33:42;;;;;;;1.73;1.00;;;6.80;99.90;;;;;;5034525;28;20023;-73
2022/09/20 05:36:28;;;;;;;2.25;0.90;;;6.80;99.90;;;;;;5034574;28;20063;-73
2022/09/20 05:39:15;;;;;;;1.65;1.00;;;6.80;99.90;;;;;;5034489;28;20030;-73
2022/09/20 05:42:06;;;;;;;2.00;1.17;;;6.80;99.90;;;;;;5033987;28;20021;-73
2022/09/20 05:45:07;;;;;;;4.28;1.45;;;6.80;99.90;;;;;;5033908;28;20025;-72
2022/09/20 05:47:50;;;;;;;3.45;1.20;;;6.80;99.90;;;;;;5034262;28;20025;-73
2022/09/20 05:50:38;;;;;;;2.47;1.40;;;6.80;99.90;;;;;;5032707;28;20030;-73
2022/09/20 05:53:22;;;;;;;1.88;1.10;;;6.80;99.90;;;;;;5034135;28;20018;-73
2022/09/20 05:55:53;;;;;;;2.78;0.82;;;6.80;99.90;;;;;;5034480;28;20033;-73
2022/09/20 05:58:20;;;;;;;1.90;1.00;;;6.80;99.90;;;;;;5033509;28;20034;-72
2022/09/20 06:01:02;;;;;;;3.28;1.50;;;6.80;99.90;;;;;;5033704;28;20021;-73
2022/09/20 06:03:54;;;;;;;3.40;1.52;;;6.90;99.90;;;;;;5033982;28;20033;-73
2022/09/20 06:06:38;;;;;;;2.30;1.27;;;6.90;99.90;;;;;;5032412;28;20025;-73
2022/09/20 06:09:28;;;;;;;2.70;1.52;;;6.90;99.90;;;;;;5033604;28;20036;-73
2022/09/20 06:12:20;;;;;;;2.30;1.27;;;6.90;99.90;;;;;;5033514;28;20029;-73
2022/09/20 06:15:11;;;;;;;2.80;1.50;;;7.00;99.90;;;;;;5033260;28;20104;-73
2022/09/20 06:17:46;;;;;;;2.47;1.63;;;7.00;99.90;;;;;;5033475;28;20101;-73
2022/09/20 06:20:41;;;;;;;3.05;1.90;;;7.00;99.90;;;;;;5033333;28;20036;-73
2022/09/20 06:23:08;;;;;;;5.22;2.20;;;7.00;99.90;;;;;;5033702;28;20032;-73
2022/09/20 06:25:55;;;;;;;3.63;2.60;;;7.10;99.90;;;;;;5033470;28;20029;-73
2022/09/20 06:28:28;;;;;;;4.25;2.70;;;7.10;99.90;;;;;;5032332;28;20026;-72
2022/09/20 06:30:56;;;;;;;2.65;2.10;;;7.20;99.90;;;;;;5033518;28;20104;-73
2022/09/20 06:33:27;;;;;;;4.60;2.13;;;7.30;99.90;;;;;;5033225;28;20033;-73
2022/09/20 06:42:03;;;;;;;3.90;2.08;;;7.40;99.90;;;;;;5033618;28;20028;-73
2022/09/20 06:44:30;;;;;;;2.67;2.00;;;7.50;99.90;;;;;;5033002;28;20041;-72
2022/09/20 06:46:55;;;;;;;4.18;1.90;;;7.50;99.90;;;;;;5033643;28;20030;-73
2022/09/20 06:49:22;;;;;;;3.63;2.20;;;7.50;99.90;;;;;;5033310;28;20026;-72
2022/09/20 06:51:49;;;;;;;5.47;2.28;;;7.60;99.90;;;;;;5031891;28;20163;-73
2022/09/20 06:54:20;;;;;;;3.13;1.65;;;7.60;99.90;;;;;;5032975;28;20022;-72
2022/09/20 06:56:47;;;;;;;3.00;1.48;;;7.70;99.90;;;;;;5033280;28;20018;-73
2022/09/20 06:59:14;;;;;;;2.67;1.58;;;7.70;99.90;;;;;;5032758;28;20026;-72
2022/09/20 07:01:40;;;;;;;3.55;1.40;;;7.80;99.90;;;;;;5033581;28;20038;-73
2022/09/20 07:04:08;;;;;;;2.35;1.42;;;7.80;99.90;;;;;;5032918;28;20036;-73
2022/09/20 07:06:33;;;;;;;4.60;2.53;;;7.80;99.90;;;;;;5031965;28;20056;-72
2022/09/20 07:08:59;;;;;;;5.50;2.42;;;7.80;99.90;;;;;;5033152;28;20065;-73
2022/09/20 07:11:26;;;;;;;7.45;3.10;;;7.90;99.90;;;;;;5032814;28;20067;-73
2022/09/20 07:13:53;;;;;;;6.38;3.30;;;7.90;99.90;;;;;;5032945;28;20022;-72
2022/09/20 07:16:20;;;;;;;4.03;2.58;;;7.90;99.90;;;;;;5032886;28;20021;-73
2022/09/20 07:18:47;;;;;;;3.50;2.45;;;7.90;99.90;;;;;;5032702;28;20032;-73
2022/09/20 07:21:18;;;;;;;3.85;2.35;;;7.90;99.90;;;;;;5032812;28;20391;-73
2022/09/20 07:23:44;;;;;;;3.35;2.45;;;8.00;99.90;;;;;;5033161;28;20440;-73
2022/09/20 07:26:22;;;;;;;4.05;2.90;;;8.00;99.90;;;;;;5032776;28;20025;-73
2022/09/20 07:28:48;;;;;;;5.25;3.13;;;8.10;99.90;;;;;;5033107;28;20080;-72
2022/09/20 07:31:18;;;;;;;4.43;2.78;;;8.20;99.90;;;;;;5032969;28;20039;-73
2022/09/20 07:33:44;;;;;;;4.07;2.20;;;8.20;99.90;;;;;;5032641;28;20032;-73
2022/09/20 07:36:13;;;;;;;7.32;2.50;;;8.30;99.90;;;;;;5032249;28;20025;-73
2022/09/20 07:38:40;;;;;;;3.72;2.25;;;8.30;99.90;;;;;;5033564;28;20104;-72
2022/09/20 07:41:07;;;;;;;3.33;1.90;;;8.40;99.90;;;;;;5036580;28;20030;-73
2022/09/20 07:43:33;;;;;;;4.65;2.00;;;8.40;99.90;;;;;;5036286;28;20033;-72
2022/09/20 07:45:59;;;;;;;6.07;2.45;;;8.40;99.90;;;;;;5035204;28;20397;-72
2022/09/20 07:48:29;;;;;;;2.33;1.42;;;8.40;99.90;;;;;;5036262;28;20029;-73
2022/09/20 07:51:03;;;;;;;4.85;1.70;;;8.40;99.90;;;;;;5035989;28;20095;-72
2022/09/20 07:53:28;;;;;;;5.25;2.15;;;8.30;99.90;;;;;;5036348;28;20362;-73
2022/09/20 07:56:23;;;;;;;2.70;1.50;;;8.30;99.90;;;;;;5035146;28;20152;-73
2022/09/20 07:58:50;;;;;;;3.90;1.63;;;8.40;99.90;;;;;;5032256;28;20041;-73
2022/09/20 08:01:15;;;;;;;4.05;1.70;;;8.50;99.90;;;;;;5035929;28;20026;-73
2022/09/20 08:03:41;;;;;;;2.67;1.30;;;8.60;99.90;;;;;;5035931;28;20025;-73
2022/09/20 08:06:09;;;;;;;2.90;1.30;;;8.70;99.90;;;;;;5035942;28;20034;-73
2022/09/20 08:08:37;;;;;;;3.05;1.27;;;8.90;99.90;;;;;;5035899;28;20397;-73
2022/09/20 08:11:06;;;;;;;3.17;1.40;;;8.90;99.90;;;;;;5035998;28;20121;-72
2022/09/20 08:13:46;;;;;;;3.63;1.38;;;8.90;99.90;;;;;;5035424;28;20029;-72
2022/09/20 08:16:13;;;;;;;2.97;1.30;;;9.00;99.90;;;;;;5035782;28;20026;-73
2022/09/20 08:18:45;;;;;;;2.25;1.30;;;9.00;99.90;;;;;;5035418;28;20041;-73
2022/09/20 08:21:10;;;;;;;3.38;1.42;;;9.10;99.90;;;;;;5035676;28;20036;-72
2022/09/20 08:23:42;;;;;;;3.08;1.63;;;9.20;99.90;;;;;;5035617;28;20034;-72
2022/09/20 08:26:11;;;;;;;3.75;1.23;;;9.30;99.90;;;;;;5035597;28;20021;-72
2022/09/20 08:28:37;;;;;;;4.50;1.75;;;9.30;99.90;;;;;;5035472;28;20029;-72
2022/09/20 08:31:05;;;;;;;3.10;1.20;;;9.40;99.90;;;;;;5035397;28;20025;-73
2022/09/20 08:33:32;;;;;;;4.40;1.30;;;9.50;99.90;;;;;;5055187;22;20496;-83
2022/09/20 08:35:58;;;;;;;3.63;1.17;;;9.50;99.90;;;;;;5075164;28;20017;-83
2022/09/20 08:38:26;;;;;;;5.32;1.38;;;9.50;99.90;;;;;;5057432;28;20050;-82
2022/09/20 08:41:06;;;;;;;4.68;1.35;;;9.40;99.90;;;;;;5040820;28;20032;-82
2022/09/20 08:43:39;;;;;;;4.00;1.20;;;9.40;99.90;;;;;;5045011;28;20036;-82
2022/09/20 08:46:12;;;;;;;2.40;0.90;;;9.30;99.90;;;;;;5038490;28;20063;-83
2022/09/20 08:48:38;;;;;;;2.08;1.10;;;9.30;99.90;;;;;;5055437;28;20036;-83
2022/09/20 08:51:05;;;;;;;4.03;1.42;;;9.20;99.90;;;;;;5019002;28;20037;-83
2022/09/20 08:53:32;;;;;;;4.82;1.95;;;9.20;99.90;;;;;;5021015;28;20060;-84
2022/09/20 08:55:58;;;;;;;3.67;1.25;;;9.20;99.90;;;;;;5053639;28;20025;-82
2022/09/20 08:58:27;;;;;;;3.42;1.50;;;9.20;99.90;;;;;;5037103;28;20481;-83
2022/09/20 09:00:58;;;;;;;3.65;1.55;;;9.20;99.90;;;;;;5020624;28;20063;-83
2022/09/20 09:03:27;;;;;;;4.28;1.60;;;9.20;99.90;;;;;;5019982;28;20051;-83
2022/09/20 09:05:56;;;;;;;3.05;1.60;;;9.20;99.90;;;;;;5019846;28;20392;-83
2022/09/20 09:08:37;;;;;;;3.50;1.35;;;9.20;99.90;;;;;;5037791;28;20062;-83
2022/09/20 09:11:07;;;;;;;5.97;1.70;;;9.20;99.90;;;;;;5055315;28;20021;-83
2022/09/20 09:14:00;;;;;;;4.78;1.52;;;9.20;99.90;;;;;;5036827;28;20033;-83
2022/09/20 09:16:30;;;;;;;3.83;1.42;;;9.20;99.90;;;;;;5054931;28;20013;-83
2022/09/20 09:18:56;;;;;;;3.08;1.80;;;9.30;99.90;;;;;;5053523;28;20024;-83
2022/09/20 09:21:24;;;;;;;3.47;1.60;;;9.40;99.90;;;;;;5034954;28;20017;-83
2022/09/20 09:24:15;;;;;;;4.40;1.58;;;9.40;99.90;;;;;;5054507;28;20025;-83
2022/09/20 09:26:42;;;;;;;3.78;1.50;;;9.60;99.90;;;;;;5041489;28;20528;-83
2022/09/20 09:29:14;;;;;;;1.92;0.93;;;9.80;99.90;;;;;;5047897;28;20038;-83
2022/09/20 09:31:40;;;;;;;2.55;0.80;;;10.20;99.90;;;;;;5031070;28;20028;-83
2022/09/20 09:34:34;;;;;;;2.17;1.00;;;10.40;99.90;;;;;;5036461;28;20025;-83
2022/09/20 09:37:00;;;;;;;4.05;0.88;;;10.50;99.90;;;;;;5056864;28;20052;-83
2022/09/20 09:39:28;;;;;;;1.92;1.00;;;10.60;99.90;;;;;;5059568;28;20033;-84
2022/09/20 09:41:56;;;;;;;2.60;0.95;;;10.60;99.90;;;;;;5036795;28;20033;-84
2022/09/20 09:44:28;;;;;;;2.65;1.10;;;10.50;99.90;;;;;;5035757;28;20027;-83
2022/09/20 09:46:56;;;;;;;7.40;1.88;;;10.50;99.90;;;;;;5060887;28;20051;-83
2022/09/20 09:49:23;;;;;;;5.38;1.75;;;10.50;99.90;;;;;;5053748;28;20024;-83
2022/09/20 09:52:15;;;;;;;4.18;1.30;;;10.60;99.90;;;;;;5052021;28;20481;-83
2022/09/20 09:54:45;;;;;;;;;;;10.50;99.90;;;;;;5051501;28;20039;-83
2022/09/20 09:57:30;;;;;;;5.15;2.35;;;10.50;99.90;;;;;;5052365;28;19905;-83
2022/09/20 10:00:25;;;;;;;3.17;1.60;;;10.30;99.90;;;;;;5053420;28;20469;-83
2022/09/20 10:03:18;;;;;;;4.05;2.10;;;10.30;99.90;;;;;;5035191;28;20025;-83
2022/09/20 10:06:09;;;;;;;4.57;2.38;;;10.20;99.90;;;;;;5035941;28;20025;-83
2022/09/20 10:08:51;;;;;;;5.15;2.67;;;10.20;99.90;;;;;;5036026;28;20021;-84
2022/09/20 10:11:32;;;;;;;3.00;1.70;;;10.20;99.90;;;;;;5036027;28;20035;-83
2022/09/20 10:14:23;;;;;;;2.78;1.30;;;10.10;99.90;;;;;;5035557;28;20051;-83
2022/09/20 10:17:07;;;;;;;5.90;1.80;;;10.20;99.90;;;;;;5036018;28;20108;-83
2022/09/20 10:19:49;;;;;;;3.75;1.63;;;10.10;99.90;;;;;;5034159;28;20025;-83
2022/09/20 10:23:06;;;;;;;4.22;1.30;;;10.10;99.90;;;;;;5034248;28;20107;-83
2022/09/20 10:25:51;;;;;;;3.00;1.00;;;10.00;99.90;;;;;;4970317;28;20041;-84
2022/09/20 10:28:22;;;;;;;1.98;0.93;;;10.00;99.90;;;;;;4988446;28;20061;-84
2022/09/20 10:30:57;;;;;;;2.25;0.95;;;9.90;99.90;;;;;;5026567;28;20036;-84
2022/09/20 10:33:30;;;;;;;1.58;0.57;;;9.80;99.90;;;;;;5052732;28;20029;-84
2022/09/20 10:36:44;;;;;;;1.33;0.60;;;9.70;99.90;;;;;;5024106;28;20013;-84
2022/09/20 10:39:33;;;;;;;1.95;0.60;;;9.60;99.90;;;;;;4953144;28;20107;-84
2022/09/20 10:45:38;;;;;;;0.75;0.50;;;9.50;99.90;;;;;;5056163;28;20114;-84
2022/09/20 10:48:17;;;;;;;2.28;0.73;;;9.40;99.90;;;;;;5048818;28;20040;-84
2022/09/20 10:50:52;;;;;;;2.40;0.80;;;9.50;99.90;;;;;;5053368;28;20021;-84
2022/09/20 10:54:22;;;;;;;4.13;1.58;;;9.60;99.90;;;;;;5053283;28;20061;-84
2022/09/20 10:56:51;;;;;;;4.38;0.90;;;9.60;99.90;;;;;;4924569;28;20083;-84
2022/09/20 10:59:23;;;;;;;1.35;0.60;;;9.60;99.90;;;;;;5034991;28;20469;-84
2022/09/20 11:01:49;;;;;;;2.55;0.98;;;9.60;99.90;;;;;;5035375;28;20522;-84
2022/09/20 11:04:34;;;;;;;1.90;0.70;;;9.60;99.90;;;;;;5035269;28;20127;-84
2022/09/20 11:07:36;;;;;;;1.83;0.90;;;9.60;99.90;;;;;;5035319;28;20119;-84
2022/09/20 11:10:27;;;;;;;2.45;1.00;;;9.70;99.90;;;;;;5048632;28;20107;-84
2022/09/20 11:13:31;;;;;;;1.85;0.90;;;9.80;99.90;;;;;;5053085;28;20033;-83
2022/09/20 11:16:17;;;;;;;2.95;1.40;;;10.00;99.90;;;;;;5025782;28;20500;-84
2022/09/20 11:19:09;;;;;;;2.40;0.88;;;10.20;99.90;;;;;;5037693;28;20021;-84
2022/09/20 11:21:50;;;;;;;2.00;0.70;;;10.30;99.90;;;;;;5025513;28;20033;-84
2022/09/20 11:24:22;;;;;;;;;;;10.40;99.90;;;;;;5054113;28;20029;-84
2022/09/20 11:26:56;;;;;;;1.15;0.57;;;10.40;99.90;;;;;;5034324;28;19905;-84
2022/09/20 11:30:03;;;;;;;2.75;0.90;;;10.50;99.90;;;;;;5036163;28;20108;-84
2022/09/20 11:32:36;;;;;;;2.60;0.75;;;10.70;99.90;;;;;;4960829;28;20556;-84
2022/09/20 11:35:10;;;;;;;1.95;0.40;;;10.80;99.90;;;;;;5038707;28;20477;-84
2022/09/20 11:37:42;;;;;;;2.28;0.60;;;10.80;99.90;;;;;;5037263;28;20032;-84
2022/09/20 11:40:31;;;;;;;3.53;1.20;;;10.70;99.90;;;;;;5049619;28;20013;-83
2022/09/20 11:42:59;;;;;;;2.92;0.90;;;10.60;99.90;;;;;;5056565;28;20025;-84
2022/09/20 11:45:27;;;;;;;2.25;0.40;;;10.60;99.90;;;;;;5058491;28;20023;-84
2022/09/20 11:47:59;;;;;;;1.63;0.70;;;10.50;99.90;;;;;;5037314;28;20021;-84
2022/09/20 11:50:31;;;;;;;1.65;0.82;;;10.40;99.90;;;;;;5038301;28;20031;-84
2022/09/20 11:53:16;;;;;;;4.53;0.60;;;10.40;99.90;;;;;;5056221;28;20017;-84
2022/09/20 11:55:48;;;;;;;3.65;1.60;;;10.30;99.90;;;;;;5054227;28;20051;-84
2022/09/20 11:58:15;;;;;;;5.10;1.52;;;10.20;99.90;;;;;;5053540;28;20025;-84
2022/09/20 12:00:45;;;;;;;3.10;2.10;;;10.20;99.90;;;;;;5036241;28;20029;-84
2022/09/20 12:03:27;;;;;;;2.22;0.88;;;10.20;99.90;;;;;;5055341;28;20052;-83
2022/09/20 12:06:19;;;;;;;6.38;3.35;;;10.10;99.90;;;;;;5035979;28;20025;-85
2022/09/20 12:08:49;;;;;;;2.45;1.38;;;10.00;99.90;;;;;;5037658;28;20033;-83
2022/09/20 12:11:16;;;;;;;1.50;0.80;;;9.80;99.90;;;;;;5033600;28;20023;-84
2022/09/20 12:13:52;;;;;;;4.65;2.58;;;9.70;99.90;;;;;;5060834;28;20020;-83
2022/09/20 12:16:36;;;;;;;3.92;0.88;;;9.50;99.90;;;;;;5057321;28;20048;-83
2022/09/20 12:19:09;;;;;;;6.47;3.80;;;9.40;99.90;;;;;;5055585;28;20021;-84
2022/09/20 12:22:13;;;;;;;3.88;1.80;;;9.20;99.90;;;;;;5055985;28;20017;-83
2022/09/20 12:24:39;;;;;;;4.90;1.52;;;9.10;99.90;;;;;;4977796;28;20457;-83
2022/09/20 12:27:24;;;;;;;3.40;1.42;;;9.20;99.90;;;;;;4959179;28;20109;-83
2022/09/20 12:30:17;;;;;;;2.30;1.10;;;9.20;99.90;;;;;;5021461;28;20106;-82
2022/09/20 12:32:50;;;;;;;1.45;0.70;;;9.20;99.90;;;;;;5047681;28;20036;-82
2022/09/20 12:35:34;;;;;;;2.33;0.80;;;9.30;99.90;;;;;;5054090;28;20021;-83
2022/09/20 12:38:19;;;;;;;1.38;0.55;;;9.30;99.90;;;;;;5054037;28;20025;-83
2022/09/20 12:41:03;;;;;;;1.08;0.60;;;9.40;99.90;;;;;;5057981;28;20029;-83
2022/09/20 12:43:31;;;;;;;1.63;0.70;;;9.40;99.90;;;;;;5060866;28;20488;-83
2022/09/20 12:45:58;;;;;;;2.83;0.80;;;9.40;99.90;;;;;;5045011;28;20044;-83
2022/09/20 12:48:24;;;;;;;2.70;0.73;;;9.40;99.90;;;;;;5055875;28;20036;-83
2022/09/20 12:54:15;;;;;;;0.88;0.60;;;9.30;99.90;;;;;;5052796;28;20420;-83
2022/09/20 12:56:42;;;;;;;3.28;1.10;;;9.30;99.90;;;;;;5051509;28;20096;-83
2022/09/20 12:59:26;;;;;;;1.75;0.90;;;9.40;99.90;;;;;;5025084;28;20029;-83
2022/09/20 13:01:51;;;;;;;2.10;1.10;;;9.40;99.90;;;;;;5037197;28;20093;-83
2022/09/20 13:04:54;;;;;;;3.00;1.13;;;9.40;99.90;;;;;;5043972;28;20503;-82
2022/09/20 13:07:36;;;;;;;2.78;0.93;;;9.40;99.90;;;;;;5040889;28;20028;-83
2022/09/20 13:10:07;;;;;;;;;;;9.50;99.90;;;;;;5058680;28;20087;-83
2022/09/20 13:12:36;;;;;;;3.40;2.28;;;9.50;99.90;;;;;;5033521;28;19960;-83
2022/09/20 13:15:03;;;;;;;4.05;2.15;;;9.50;99.90;;;;;;5016262;28;20034;-83
2022/09/20 13:17:30;;;;;;;4.78;2.20;;;9.50;99.90;;;;;;5014010;28;20033;-83
2022/09/20 13:19:56;;;;;;;5.45;2.05;;;9.50;99.90;;;;;;5019800;28;20389;-83
2022/09/20 13:22:27;;;;;;;7.90;3.60;;;9.50;99.90;;;;;;5017900;28;20550;-83
2022/09/20 13:24:58;;;;;;;2.80;1.20;;;9.60;99.90;;;;;;5060084;28;20028;-83
2022/09/20 13:27:35;;;;;;;2.03;0.82;;;9.60;99.90;;;;;;5053094;28;20028;-83
2022/09/20 13:30:16;;;;;;;2.13;0.90;;;9.60;99.90;;;;;;5054442;28;20025;-83
2022/09/20 13:32:42;;;;;;;3.25;1.20;;;9.70;99.90;;;;;;5031474;28;20182;-84
2022/09/20 13:35:20;;;;;;;15.60;6.07;;;9.70;99.90;;;;;;5054273;28;20515;-83
2022/09/20 13:38:23;;;;;;;12.50;5.78;;;9.60;99.90;;;;;;5036258;28;20104;-83
2022/09/20 13:40:50;;;;;;;7.95;4.07;;;9.70;99.90;;;;;;5052632;28;20167;-83
2022/09/20 13:43:22;;;;;;;2.50;1.33;;;9.70;99.90;;;;;;5036224;28;20029;-83
2022/09/20 13:45:52;;;;;;;2.50;1.20;;;9.80;99.90;;;;;;5052679;28;20136;-83
2022/09/20 13:48:18;;;;;;;1.58;0.95;;;9.80;99.90;;;;;;5053006;28;20021;-82
2022/09/20 13:50:44;;;;;;;3.95;2.03;;;9.90;99.90;;;;;;5017888;28;20044;-83
2022/09/20 13:53:14;;;;;;;3.13;1.20;;;9.90;99.90;;;;;;5015623;28;20045;-83
2022/09/20 13:55:45;;;;;;;3.15;1.38;;;9.80;99.90;;;;;;5052792;28;20017;-83
2022/09/20 13:58:27;;;;;;;4.72;1.90;;;9.80;99.90;;;;;;5031674;28;20400;-83
2022/09/20 14:00:59;;;;;;;6.47;2.40;;;9.70;99.90;;;;;;5032264;28;20059;-83